Aviation Digital Data Service (ADDS)

Output produced by METARs form (0108 UTC 24 May 2022)
found at http://www.aviationweather.gov/metar/data/
 
OOKB 240050Z AUTO 19003KT 120V230 //// R01/P2000N // NCD 33/13 Q0998 NOSIG
OOSA 240050Z 20006KT 9999 BKN025 29/24 Q1004 NOSIG
TAF OOSA 232340Z 2400/2506 VRB03KT 9999 BKN025 
     BECMG 2405/2407 19012KT SCT025 
     BECMG 2416/2418 VRB03KT BKN025
       
OOMS 232350Z 33008KT 9000 NSC 32/29 Q0998 NOSIG
TAF OOMS 232300Z 2400/2506 VRB02KT 8000 NSC 
     BECMG 2406/2408 04012KT 
     BECMG 2415/2417 VRB02KT 
     BECMG 2418/2420 20012KT